Wilson Heron — 9HJW9 — position and weather

sailwx.info

Track history (hours):
 
Tides and Currents Weather Stations Pressure Air Temp Water Temp Dewpoint Dewpoint Depression Visibility Wind Speed Wind Dir Waves Ship Positions

Wilson Heron

Last reported at 2015-Jan-31 03:32 UTC. Time now 2015-Jan-31 04:02 UTC.
Position N 53°53' E 004°51'.

Length 91 m; draft 5.5 m.

Type: Cargo ship. MMSI: 249075000.

Date/timePositionNaut miles runAvg speedWind from/ knotsBaromVisibWave heightAir tempDewpointWater temp
2015-Jan-31 03:32N 53°53' E 004°51'1010.1
2015-Jan-31 02:33N 53°43' E 004°51'1010.4
2015-Jan-31 01:33N 53°33' E 004°47'1110.8
2015-Jan-31 00:34N 53°23' E 004°39'1410.5
2015-Jan-30 23:11N 53°10' E 004°29'610.1
2015-Jan-30 22:33N 53°04' E 004°24'10 9.5
2015-Jan-30 21:33N 52°56' E 004°17'9 9.2
2015-Jan-30 20:33N 52°48' E 004°09'9 9.1
2015-Jan-30 19:33N 52°41' E 003°59'9 8.7
2015-Jan-30 18:33N 52°35' E 003°49'10 8.6
2015-Jan-30 17:21N 52°27' E 003°38'6210.2
2015-Jan-30 11:15N 51°40' E 002°31'811.3
2015-Jan-30 10:33N 51°34' E 002°23'1111.2
2015-Jan-30 09:34N 51°25' E 002°13'1111.3
2015-Jan-30 08:33N 51°15' E 002°04'1211.7
2015-Jan-30 07:33N 51°07' E 001°50'1211.9
2015-Jan-30 06:33N 50°59' E 001°36'  
2015-Jan-24 06:22N 43°48' W 005°42'1011.1
2015-Jan-24 05:29N 43°48' W 005°28'1010.9
2015-Jan-24 04:33N 43°48' W 005°14'14811.0
2015-Jan-23 15:05N 43°34' W 001°51'611.1
2015-Jan-23 14:33N 43°33' W 001°43'9 9.0
2015-Jan-23 13:33N 43°32' W 001°30'0 0.0
2015-Jan-23 09:30N 43°32' W 001°30'0 0.0
2015-Jan-23 08:27N 43°32' W 001°30'0 0.0
2015-Jan-23 07:33N 43°32' W 001°30'0 0.0
2015-Jan-23 06:33N 43°32' W 001°30'0 0.0
2015-Jan-23 05:30N 43°32' W 001°30'0 0.0
2015-Jan-23 04:30N 43°32' W 001°30'0 0.0
2015-Jan-23 03:30N 43°32' W 001°30'0 0.0
2015-Jan-23 02:33N 43°32' W 001°30'0 0.0
2015-Jan-23 01:21N 43°32' W 001°30'0 0.0
2015-Jan-23 00:33N 43°32' W 001°30'0 0.0
2015-Jan-22 23:33N 43°32' W 001°30'0 0.0
2015-Jan-22 22:29N 43°32' W 001°30'0 0.0
2015-Jan-22 21:33N 43°32' W 001°30'0 0.0
2015-Jan-22 20:33N 43°32' W 001°30'0 0.0
2015-Jan-22 19:30N 43°32' W 001°30'0 0.0
2015-Jan-22 18:27N 43°32' W 001°30'0 0.0
2015-Jan-22 17:33N 43°32' W 001°30'0 0.0
2015-Jan-22 16:24N 43°32' W 001°30'0 0.0
2015-Jan-22 15:26N 43°32' W 001°30'1 1.2
2015-Jan-22 14:33N 43°31' W 001°30'0 0.0
2015-Jan-22 13:33N 43°31' W 001°30'0 0.0
2015-Jan-22 12:33N 43°31' W 001°30'0 0.0
2015-Jan-22 11:33N 43°31' W 001°30'0 0.0
2015-Jan-22 10:33N 43°31' W 001°30'0 0.0
2015-Jan-22 09:33N 43°31' W 001°30'0 0.0
2015-Jan-22 08:33N 43°31' W 001°30'0 0.0
2015-Jan-22 07:33N 43°31' W 001°30'0 0.0
2015-Jan-22 06:33N 43°31' W 001°30'0 0.0
2015-Jan-22 05:33N 43°31' W 001°30'0 0.0
2015-Jan-22 04:33N 43°31' W 001°30'0 0.0
2015-Jan-22 03:33N 43°31' W 001°30'0 0.0
2015-Jan-22 02:27N 43°31' W 001°30'0 0.0
2015-Jan-22 01:33N 43°31' W 001°30'0 0.0
2015-Jan-22 00:33N 43°31' W 001°30'0 0.0
2015-Jan-21 23:33N 43°31' W 001°30'0 0.0
2015-Jan-21 22:48N 43°31' W 001°30'0 0.0
2015-Jan-21 22:45N 43°31' W 001°30'0 0.0
2015-Jan-21 22:33N 43°31' W 001°30'0 0.0
2015-Jan-21 21:33N 43°31' W 001°30'0 0.0
2015-Jan-21 20:33N 43°31' W 001°30'0 0.0
2015-Jan-21 19:33N 43°31' W 001°30'0 0.0
2015-Jan-21 18:33N 43°31' W 001°30'0 0.0
2015-Jan-21 17:33N 43°31' W 001°30'0 0.0
2015-Jan-21 16:33N 43°31' W 001°30'0 0.0
2015-Jan-21 15:33N 43°31' W 001°30'0 0.0
2015-Jan-21 14:33N 43°31' W 001°30'0 0.0
2015-Jan-21 13:33N 43°31' W 001°30'0 0.0
2015-Jan-21 12:33N 43°31' W 001°30'0 0.0
2015-Jan-21 11:33N 43°31' W 001°30'1 1.3
2015-Jan-21 10:33N 43°32' W 001°31'9 8.8
2015-Jan-21 09:33N 43°37' W 001°41'  
Track history (hours):
 
Tides and Currents Weather Stations Pressure Air Temp Water Temp Dewpoint Dewpoint Depression Visibility Wind Speed Wind Dir Waves Ship Positions

Wilson Heron

Last reported at 2015-Jan-31 03:32 UTC. Time now 2015-Jan-31 04:02 UTC.
Position N 53°53' E 004°51'.

Length 91 m; draft 5.5 m.

Type: Cargo ship. MMSI: 249075000.

Date/timePositionNaut miles runAvg speedWind from/ knotsBaromVisibWave heightAir tempDewpointWater temp
2015-Jan-31 03:32N 53°53' E 004°51'1010.1
2015-Jan-31 02:33N 53°43' E 004°51'1010.4
2015-Jan-31 01:33N 53°33' E 004°47'1110.8
2015-Jan-31 00:34N 53°23' E 004°39'1410.5
2015-Jan-30 23:11N 53°10' E 004°29'610.1
2015-Jan-30 22:33N 53°04' E 004°24'10 9.5
2015-Jan-30 21:33N 52°56' E 004°17'9 9.2
2015-Jan-30 20:33N 52°48' E 004°09'9 9.1
2015-Jan-30 19:33N 52°41' E 003°59'9 8.7
2015-Jan-30 18:33N 52°35' E 003°49'10 8.6
2015-Jan-30 17:21N 52°27' E 003°38'6210.2
2015-Jan-30 11:15N 51°40' E 002°31'811.3
2015-Jan-30 10:33N 51°34' E 002°23'1111.2
2015-Jan-30 09:34N 51°25' E 002°13'1111.3
2015-Jan-30 08:33N 51°15' E 002°04'1211.7
2015-Jan-30 07:33N 51°07' E 001°50'1211.9
2015-Jan-30 06:33N 50°59' E 001°36'  
2015-Jan-24 06:22N 43°48' W 005°42'1011.1
2015-Jan-24 05:29N 43°48' W 005°28'1010.9
2015-Jan-24 04:33N 43°48' W 005°14'14811.0
2015-Jan-23 15:05N 43°34' W 001°51'611.1
2015-Jan-23 14:33N 43°33' W 001°43'9 9.0
2015-Jan-23 13:33N 43°32' W 001°30'0 0.0
2015-Jan-23 09:30N 43°32' W 001°30'0 0.0
2015-Jan-23 08:27N 43°32' W 001°30'0 0.0
2015-Jan-23 07:33N 43°32' W 001°30'0 0.0
2015-Jan-23 06:33N 43°32' W 001°30'0 0.0
2015-Jan-23 05:30N 43°32' W 001°30'0 0.0
2015-Jan-23 04:30N 43°32' W 001°30'0 0.0
2015-Jan-23 03:30N 43°32' W 001°30'0 0.0
2015-Jan-23 02:33N 43°32' W 001°30'0 0.0
2015-Jan-23 01:21N 43°32' W 001°30'0 0.0
2015-Jan-23 00:33N 43°32' W 001°30'0 0.0
2015-Jan-22 23:33N 43°32' W 001°30'0 0.0
2015-Jan-22 22:29N 43°32' W 001°30'0 0.0
2015-Jan-22 21:33N 43°32' W 001°30'0 0.0
2015-Jan-22 20:33N 43°32' W 001°30'0 0.0
2015-Jan-22 19:30N 43°32' W 001°30'0 0.0
2015-Jan-22 18:27N 43°32' W 001°30'0 0.0
2015-Jan-22 17:33N 43°32' W 001°30'0 0.0
2015-Jan-22 16:24N 43°32' W 001°30'0 0.0
2015-Jan-22 15:26N 43°32' W 001°30'1 1.2
2015-Jan-22 14:33N 43°31' W 001°30'0 0.0
2015-Jan-22 13:33N 43°31' W 001°30'0 0.0
2015-Jan-22 12:33N 43°31' W 001°30'0 0.0
2015-Jan-22 11:33N 43°31' W 001°30'0 0.0
2015-Jan-22 10:33N 43°31' W 001°30'0 0.0
2015-Jan-22 09:33N 43°31' W 001°30'0 0.0
2015-Jan-22 08:33N 43°31' W 001°30'0 0.0
2015-Jan-22 07:33N 43°31' W 001°30'0 0.0
2015-Jan-22 06:33N 43°31' W 001°30'0 0.0
2015-Jan-22 05:33N 43°31' W 001°30'0 0.0
2015-Jan-22 04:33N 43°31' W 001°30'0 0.0
2015-Jan-22 03:33N 43°31' W 001°30'0 0.0
2015-Jan-22 02:27N 43°31' W 001°30'0 0.0
2015-Jan-22 01:33N 43°31' W 001°30'0 0.0
2015-Jan-22 00:33N 43°31' W 001°30'0 0.0
2015-Jan-21 23:33N 43°31' W 001°30'0 0.0
2015-Jan-21 22:48N 43°31' W 001°30'0 0.0
2015-Jan-21 22:45N 43°31' W 001°30'0 0.0
2015-Jan-21 22:33N 43°31' W 001°30'0 0.0
2015-Jan-21 21:33N 43°31' W 001°30'0 0.0
2015-Jan-21 20:33N 43°31' W 001°30'0 0.0
2015-Jan-21 19:33N 43°31' W 001°30'0 0.0
2015-Jan-21 18:33N 43°31' W 001°30'0 0.0
2015-Jan-21 17:33N 43°31' W 001°30'0 0.0
2015-Jan-21 16:33N 43°31' W 001°30'0 0.0
2015-Jan-21 15:33N 43°31' W 001°30'0 0.0
2015-Jan-21 14:33N 43°31' W 001°30'0 0.0
2015-Jan-21 13:33N 43°31' W 001°30'0 0.0
2015-Jan-21 12:33N 43°31' W 001°30'0 0.0
2015-Jan-21 11:33N 43°31' W 001°30'1 1.3
2015-Jan-21 10:33N 43°32' W 001°31'9 8.8
2015-Jan-21 09:33N 43°37' W 001°41'  

Dump ship's entire track history